createdAt,value
2023-08-29T00:01:14.163Z,13.06
2023-08-29T00:03:22.613Z,13.01
2023-08-29T00:05:27.873Z,13.00
2023-08-29T00:07:32.977Z,12.96
2023-08-29T00:09:38.314Z,12.95
2023-08-29T00:11:43.289Z,12.94
2023-08-29T00:13:48.401Z,12.94
2023-08-29T00:15:56.705Z,12.94
2023-08-29T00:17:59.167Z,12.94
2023-08-29T00:20:07.779Z,12.90
2023-08-29T00:22:10.348Z,12.89
2023-08-29T00:24:17.957Z,12.87
2023-08-29T00:26:22.943Z,12.88
2023-08-29T00:28:28.344Z,12.87
2023-08-29T00:30:37.005Z,12.86
2023-08-29T00:32:42.486Z,12.86
2023-08-29T00:34:47.423Z,12.81
2023-08-29T00:36:58.508Z,12.80
2023-08-29T00:39:05.020Z,12.86
2023-08-29T00:41:12.260Z,12.87
2023-08-29T00:43:17.279Z,12.89
2023-08-29T00:45:22.227Z,12.87
2023-08-29T00:47:27.256Z,12.87
2023-08-29T00:49:32.487Z,12.86
2023-08-29T00:51:37.488Z,12.86
2023-08-29T00:53:44.977Z,12.87
2023-08-29T00:55:51.160Z,12.84
2023-08-29T00:57:57.632Z,12.81
2023-08-29T01:00:02.877Z,12.77
2023-08-29T01:02:08.999Z,12.71
2023-08-29T01:04:11.529Z,12.66
2023-08-29T01:06:17.978Z,12.67
2023-08-29T01:08:24.900Z,12.67
2023-08-29T01:10:40.399Z,12.67
2023-08-29T01:13:00.181Z,12.62
2023-08-29T01:15:12.651Z,12.56
2023-08-29T01:17:27.099Z,12.56
2023-08-29T01:19:33.001Z,12.54
2023-08-29T01:21:48.423Z,12.53
2023-08-29T01:24:08.348Z,12.48
2023-08-29T01:26:17.837Z,12.43
2023-08-29T01:28:24.862Z,12.44
2023-08-29T01:30:30.613Z,12.42
2023-08-29T01:32:36.345Z,12.46
2023-08-29T01:34:43.541Z,12.42
2023-08-29T01:36:49.397Z,12.40
2023-08-29T01:38:56.925Z,12.38
2023-08-29T01:41:01.853Z,12.43
2023-08-29T01:43:09.566Z,12.43
2023-08-29T01:45:12.079Z,12.39
2023-08-29T01:47:20.215Z,12.39
2023-08-29T01:49:28.610Z,12.36
2023-08-29T01:51:34.062Z,12.32
2023-08-29T01:53:40.460Z,12.28
2023-08-29T01:55:48.219Z,12.27
2023-08-29T01:57:58.910Z,12.25
2023-08-29T02:00:06.897Z,12.23
2023-08-29T02:02:11.988Z,12.23
2023-08-29T02:04:17.068Z,12.21
2023-08-29T02:06:19.638Z,12.22
2023-08-29T02:08:24.897Z,12.21
2023-08-29T02:10:32.205Z,12.21
2023-08-29T02:12:37.199Z,12.23
2023-08-29T02:14:45.213Z,12.19
2023-08-29T02:16:52.945Z,12.18
2023-08-29T02:18:57.914Z,12.20
2023-08-29T02:21:00.575Z,12.21
2023-08-29T02:23:05.824Z,12.19
2023-08-29T02:25:12.120Z,12.18
2023-08-29T02:27:17.212Z,12.18
2023-08-29T02:29:22.063Z,12.18
2023-08-29T02:31:27.070Z,12.23
2023-08-29T02:33:39.816Z,12.24
2023-08-29T02:35:44.922Z,12.27
2023-08-29T02:37:49.879Z,12.27
2023-08-29T02:39:55.466Z,12.29
2023-08-29T02:42:01.338Z,12.32
2023-08-29T02:44:07.197Z,12.33
2023-08-29T02:46:12.592Z,12.40
2023-08-29T02:48:14.944Z,12.44
2023-08-29T02:50:22.706Z,12.45
2023-08-29T02:52:27.837Z,12.50
2023-08-29T02:54:32.814Z,12.51
2023-08-29T02:56:37.620Z,12.59
2023-08-29T02:58:46.254Z,12.60
2023-08-29T03:00:51.609Z,12.64
2023-08-29T03:02:59.203Z,12.66
2023-08-29T03:05:04.378Z,12.70
2023-08-29T03:07:11.751Z,12.68
2023-08-29T03:09:16.497Z,12.73
2023-08-29T03:11:21.906Z,12.74
2023-08-29T03:13:28.330Z,12.72
2023-08-29T03:15:35.676Z,12.70
2023-08-29T03:17:40.812Z,12.70
2023-08-29T03:20:51.209Z,12.71
2023-08-29T03:22:44.403Z,12.74
2023-08-29T03:24:47.472Z,12.75
2023-08-29T03:26:52.834Z,12.81
2023-08-29T03:29:01.289Z,12.83
2023-08-29T03:31:16.047Z,12.86
2023-08-29T03:33:21.213Z,12.88
2023-08-29T03:35:28.253Z,12.87
2023-08-29T03:37:33.128Z,12.88
2023-08-29T03:39:40.552Z,12.87
2023-08-29T03:41:45.598Z,12.86
2023-08-29T03:43:50.867Z,12.88
2023-08-29T03:46:01.010Z,12.90
2023-08-29T03:48:12.688Z,12.90
2023-08-29T03:50:22.618Z,12.86
2023-08-29T03:52:31.955Z,12.89
2023-08-29T03:54:36.906Z,12.89
2023-08-29T03:56:44.856Z,12.90
2023-08-29T03:58:50.773Z,12.92
2023-08-29T04:00:57.295Z,12.93
2023-08-29T04:03:02.172Z,12.94
2023-08-29T04:05:16.399Z,12.96
2023-08-29T04:07:19.572Z,12.93
2023-08-29T04:09:27.096Z,12.91
2023-08-29T04:11:32.032Z,12.91
2023-08-29T04:13:39.558Z,12.88
2023-08-29T04:15:45.040Z,12.86
2023-08-29T04:17:50.341Z,12.80
2023-08-29T04:19:58.682Z,12.76
2023-08-29T04:22:04.400Z,12.74
2023-08-29T04:24:10.323Z,12.74
2023-08-29T04:26:15.260Z,12.72
2023-08-29T04:28:21.746Z,12.74
2023-08-29T04:30:29.521Z,12.72
2023-08-29T04:32:38.747Z,12.69
2023-08-29T04:34:44.096Z,12.65
2023-08-29T04:36:49.451Z,12.57
2023-08-29T04:38:56.861Z,12.50
2023-08-29T04:41:01.949Z,12.52
2023-08-29T04:43:10.123Z,12.56
2023-08-29T04:45:15.816Z,12.61
2023-08-29T04:47:23.438Z,12.65
2023-08-29T04:49:31.992Z,12.68
2023-08-29T04:51:37.348Z,12.73
2023-08-29T04:53:42.566Z,12.77
2023-08-29T04:55:44.894Z,12.77
2023-08-29T04:57:50.405Z,12.82
2023-08-29T04:59:59.087Z,12.88
2023-08-29T05:02:04.128Z,12.88
2023-08-29T05:04:11.920Z,12.86
2023-08-29T05:06:16.980Z,12.85
2023-08-29T05:08:22.436Z,12.85
2023-08-29T05:10:27.693Z,12.85
2023-08-29T05:12:32.928Z,12.84
2023-08-29T05:14:35.462Z,12.86
2023-08-29T05:16:40.613Z,12.91
2023-08-29T05:18:45.646Z,12.95
2023-08-29T05:20:55.610Z,12.98
2023-08-29T05:23:04.025Z,13.06
2023-08-29T05:25:12.590Z,13.12
2023-08-29T05:27:17.745Z,13.14
2023-08-29T05:29:22.880Z,13.17
2023-08-29T05:31:27.994Z,13.18
2023-08-29T05:33:33.690Z,13.24
2023-08-29T05:35:38.792Z,13.28
2023-08-29T05:37:46.931Z,13.34
2023-08-29T05:39:52.549Z,13.43
2023-08-29T05:42:00.223Z,13.47
2023-08-29T05:44:02.872Z,13.51
2023-08-29T05:46:09.971Z,13.52
2023-08-29T05:48:14.971Z,13.52
2023-08-29T05:50:20.230Z,13.55
2023-08-29T05:52:26.540Z,13.55
2023-08-29T05:54:37.789Z,13.60
2023-08-29T05:56:42.855Z,13.62
2023-08-29T05:58:47.882Z,13.64
2023-08-29T06:00:53.155Z,13.68
2023-08-29T06:03:00.001Z,13.70
2023-08-29T06:05:07.682Z,13.74
2023-08-29T06:07:12.791Z,13.77
2023-08-29T06:09:17.840Z,13.83
2023-08-29T06:11:27.358Z,13.85
2023-08-29T06:13:32.325Z,13.87
2023-08-29T06:15:37.236Z,13.94
2023-08-29T06:17:42.378Z,13.93
2023-08-29T06:19:47.398Z,13.90
2023-08-29T06:21:52.665Z,13.93
2023-08-29T06:23:57.740Z,13.95
2023-08-29T06:26:04.568Z,13.97
2023-08-29T06:28:12.299Z,13.97
2023-08-29T06:30:18.070Z,13.98
2023-08-29T06:32:22.917Z,13.96
2023-08-29T06:34:34.160Z,13.99
2023-08-29T06:36:39.224Z,14.03
2023-08-29T06:38:44.375Z,14.03
2023-08-29T06:40:49.715Z,14.04
2023-08-29T06:42:58.444Z,14.10
2023-08-29T06:45:10.025Z,14.13
2023-08-29T06:47:15.284Z,14.17
2023-08-29T06:49:20.290Z,14.18
2023-08-29T06:51:27.777Z,14.23
2023-08-29T06:53:32.941Z,14.27
2023-08-29T06:55:38.860Z,14.31
2023-08-29T06:57:44.237Z,14.36
2023-08-29T06:59:49.538Z,14.40
2023-08-29T07:01:57.240Z,14.47
2023-08-29T07:04:02.409Z,14.72
2023-08-29T07:06:08.170Z,15.11
2023-08-29T07:08:13.772Z,15.39
2023-08-29T07:10:18.931Z,15.62
2023-08-29T07:12:26.081Z,16.00
2023-08-29T07:14:34.484Z,16.54
2023-08-29T07:16:39.592Z,17.10
2023-08-29T07:18:47.739Z,17.62
2023-08-29T07:20:53.176Z,17.79
2023-08-29T07:23:00.861Z,17.66
2023-08-29T07:25:07.043Z,17.61
2023-08-29T07:27:14.020Z,17.90
2023-08-29T07:29:20.805Z,18.37
2023-08-29T07:31:26.220Z,18.79
2023-08-29T07:33:31.753Z,19.00
2023-08-29T07:35:40.373Z,19.21
2023-08-29T07:37:45.637Z,19.15
2023-08-29T07:39:51.108Z,19.51
2023-08-29T07:41:56.282Z,19.51
2023-08-29T07:44:01.254Z,19.72
2023-08-29T07:46:10.317Z,20.00
2023-08-29T07:48:15.436Z,20.55
2023-08-29T07:50:20.456Z,21.02
2023-08-29T07:52:30.556Z,20.39
2023-08-29T07:54:35.518Z,20.58
2023-08-29T07:56:37.891Z,20.28
2023-08-29T07:58:42.810Z,20.27
2023-08-29T08:00:47.813Z,19.89
2023-08-29T08:02:53.033Z,19.47
2023-08-29T08:05:00.852Z,19.75
2023-08-29T08:07:05.897Z,19.68
2023-08-29T08:09:14.348Z,19.46
2023-08-29T08:11:19.388Z,19.47
2023-08-29T08:13:22.484Z,19.52
2023-08-29T08:15:27.597Z,19.62
2023-08-29T08:17:35.835Z,20.14
2023-08-29T08:19:41.106Z,19.85
2023-08-29T08:21:46.674Z,19.25
2023-08-29T08:23:53.343Z,19.40
2023-08-29T08:26:03.886Z,19.15
2023-08-29T08:28:09.966Z,19.24
2023-08-29T08:30:15.453Z,19.42
2023-08-29T08:32:21.232Z,19.48
2023-08-29T08:34:26.296Z,19.61
2023-08-29T08:36:32.288Z,20.32
2023-08-29T08:38:37.290Z,20.27
2023-08-29T08:40:44.069Z,20.60
2023-08-29T08:42:57.873Z,20.85
2023-08-29T08:45:06.274Z,20.77
2023-08-29T08:47:15.505Z,20.99
2023-08-29T08:49:21.768Z,21.79
2023-08-29T08:51:31.856Z,21.57
2023-08-29T08:53:37.791Z,21.39
2023-08-29T08:55:43.002Z,21.30
2023-08-29T08:57:48.090Z,21.38
2023-08-29T08:59:58.936Z,20.90
2023-08-29T09:02:04.172Z,20.92
2023-08-29T09:04:09.694Z,20.76
2023-08-29T09:06:15.086Z,20.70
2023-08-29T09:08:17.576Z,20.60
2023-08-29T09:10:23.191Z,20.40
2023-08-29T09:12:31.658Z,20.39
2023-08-29T09:14:40.211Z,20.63
2023-08-29T09:16:48.328Z,20.86
2023-08-29T09:18:57.220Z,20.92
2023-08-29T09:21:03.258Z,21.00
2023-08-29T09:23:24.508Z,21.68
2023-08-29T09:25:32.521Z,22.55
2023-08-29T09:27:43.819Z,22.68
2023-08-29T09:29:48.988Z,22.14
2023-08-29T09:31:59.047Z,21.36
2023-08-29T09:34:05.731Z,22.35
2023-08-29T09:36:11.633Z,23.16
2023-08-29T09:38:17.221Z,23.20
2023-08-29T09:42:31.877Z,22.21
2023-08-29T09:44:39.927Z,22.31
2023-08-29T09:46:48.095Z,22.68
2023-08-29T09:49:01.380Z,23.22
2023-08-29T09:51:07.178Z,23.25
2023-08-29T09:53:12.543Z,23.07
2023-08-29T09:55:18.458Z,23.25
2023-08-29T09:57:26.261Z,23.80
2023-08-29T09:59:33.658Z,23.62
2023-08-29T10:01:41.051Z,23.64
2023-08-29T10:03:47.930Z,23.91
2023-08-29T10:06:00.153Z,24.49
2023-08-29T10:08:31.195Z,23.81
2023-08-29T10:10:36.330Z,23.37
2023-08-29T10:12:42.089Z,23.42
2023-08-29T10:14:45.553Z,24.49
2023-08-29T10:16:53.789Z,24.94
2023-08-29T10:19:02.768Z,24.82
2023-08-29T10:21:11.110Z,24.78
2023-08-29T10:23:17.423Z,23.54
2023-08-29T10:25:25.523Z,23.19
2023-08-29T10:27:30.601Z,23.10
2023-08-29T10:29:36.332Z,23.22
2023-08-29T10:31:42.577Z,22.82
2023-08-29T10:33:52.372Z,22.42
2023-08-29T10:35:57.281Z,22.39
2023-08-29T10:38:14.589Z,21.98
2023-08-29T10:40:20.746Z,21.67
2023-08-29T10:42:51.310Z,21.83
2023-08-29T10:44:56.693Z,22.10
2023-08-29T10:47:17.828Z,22.47
2023-08-29T10:49:25.787Z,21.70
2023-08-29T10:51:30.708Z,22.48
2023-08-29T10:53:43.702Z,22.03
2023-08-29T10:56:02.795Z,22.34
2023-08-29T10:58:36.178Z,22.09
2023-08-29T11:00:58.337Z,22.59
2023-08-29T11:03:06.161Z,22.29
2023-08-29T11:05:18.454Z,22.45
2023-08-29T11:07:29.075Z,23.17
2023-08-29T11:09:45.531Z,22.78
2023-08-29T11:12:09.920Z,22.58
2023-08-29T11:14:15.586Z,22.47
2023-08-29T11:16:20.957Z,22.69
2023-08-29T11:18:28.202Z,22.26
2023-08-29T11:23:06.949Z,21.74
2023-08-29T11:25:14.779Z,22.53
2023-08-29T11:27:22.471Z,22.53
2023-08-29T11:29:32.098Z,22.48
2023-08-29T11:31:44.496Z,22.30
2023-08-29T11:33:50.981Z,22.42
2023-08-29T11:35:57.980Z,21.32
2023-08-29T11:38:00.442Z,21.16
2023-08-29T11:40:11.191Z,21.10
2023-08-29T11:43:20.858Z,20.99
2023-08-29T11:45:44.069Z,20.78
2023-08-29T11:47:18.360Z,20.79
2023-08-29T11:49:20.637Z,20.55
2023-08-29T11:51:28.781Z,20.30
2023-08-29T11:53:38.005Z,20.22
2023-08-29T11:55:42.948Z,20.09
2023-08-29T11:57:54.214Z,20.10
2023-08-29T12:00:02.097Z,20.20
2023-08-29T12:02:07.164Z,19.94
2023-08-29T12:04:12.101Z,19.80
2023-08-29T12:06:17.608Z,19.79
2023-08-29T12:08:37.459Z,19.78
2023-08-29T12:10:56.560Z,19.63
2023-08-29T12:13:14.521Z,19.56
2023-08-29T12:15:30.757Z,19.63
2023-08-29T12:17:45.753Z,19.71
2023-08-29T12:19:51.119Z,19.68
2023-08-29T12:22:00.818Z,19.35
2023-08-29T12:24:10.989Z,19.63
2023-08-29T12:26:16.929Z,19.53
2023-08-29T12:28:21.911Z,19.50
2023-08-29T12:30:27.009Z,19.45
2023-08-29T12:32:33.297Z,19.82
2023-08-29T12:34:35.616Z,19.72
2023-08-29T12:36:41.397Z,19.72
2023-08-29T12:38:46.374Z,19.52
2023-08-29T12:40:51.988Z,19.52
2023-08-29T12:42:57.701Z,19.68
2023-08-29T12:45:05.649Z,19.77
2023-08-29T12:47:10.726Z,20.04
2023-08-29T12:49:15.734Z,20.06
2023-08-29T12:51:20.571Z,20.10
2023-08-29T12:53:28.783Z,20.14
2023-08-29T12:55:34.345Z,20.11
2023-08-29T12:57:39.401Z,20.15
2023-08-29T12:59:44.629Z,19.99
2023-08-29T13:01:52.269Z,20.15
2023-08-29T13:04:00.303Z,20.03
2023-08-29T13:06:05.416Z,19.90
2023-08-29T13:08:11.200Z,19.97
2023-08-29T13:10:18.018Z,20.26
2023-08-29T13:12:27.752Z,20.13
2023-08-29T13:14:38.600Z,20.44
2023-08-29T13:16:44.274Z,20.28
2023-08-29T13:18:54.969Z,20.40
2023-08-29T13:21:00.395Z,20.41
2023-08-29T13:23:05.810Z,20.61
2023-08-29T13:25:13.662Z,20.50
2023-08-29T13:27:22.584Z,20.61
2023-08-29T13:29:28.272Z,20.71
2023-08-29T13:31:33.503Z,21.15
2023-08-29T13:33:39.056Z,21.09
2023-08-29T13:35:49.709Z,20.66
2023-08-29T13:37:55.265Z,20.42
2023-08-29T13:40:00.636Z,20.70
2023-08-29T13:42:02.922Z,20.20
2023-08-29T13:44:08.472Z,20.38
2023-08-29T13:46:14.710Z,20.16
2023-08-29T13:48:19.903Z,20.41
2023-08-29T13:50:26.664Z,20.20
2023-08-29T13:52:34.556Z,20.39
2023-08-29T13:54:40.075Z,20.52
2023-08-29T13:56:45.673Z,20.41
2023-08-29T13:58:51.134Z,20.53
2023-08-29T14:00:57.171Z,20.60
2023-08-29T14:03:02.178Z,21.15
2023-08-29T14:05:10.682Z,21.18
2023-08-29T14:07:17.269Z,21.15
2023-08-29T14:09:27.231Z,20.65
2023-08-29T14:11:40.941Z,20.85
2023-08-29T14:13:45.843Z,21.11
2023-08-29T14:15:51.011Z,21.34
2023-08-29T14:17:58.657Z,21.50
2023-08-29T14:20:06.480Z,21.15
2023-08-29T14:22:11.461Z,20.81
2023-08-29T14:24:16.490Z,20.80
2023-08-29T14:26:24.063Z,20.95
2023-08-29T14:28:32.222Z,21.02
2023-08-29T14:30:37.334Z,20.56
2023-08-29T14:32:42.732Z,20.70
2023-08-29T14:34:47.769Z,20.69
2023-08-29T14:36:52.891Z,21.08
2023-08-29T14:39:01.750Z,21.07
2023-08-29T14:41:10.629Z,21.26
2023-08-29T14:43:18.229Z,20.53
2023-08-29T14:45:23.234Z,21.03
2023-08-29T14:47:28.663Z,21.20
2023-08-29T14:49:33.839Z,21.01
2023-08-29T14:51:39.827Z,20.89
2023-08-29T14:53:42.384Z,20.53
2023-08-29T14:55:47.129Z,21.16
2023-08-29T14:57:52.247Z,20.91
2023-08-29T15:00:00.114Z,20.86
2023-08-29T15:02:05.634Z,20.95
2023-08-29T15:04:10.599Z,21.30
2023-08-29T15:06:16.775Z,21.23
2023-08-29T15:08:25.214Z,21.16
2023-08-29T15:10:31.926Z,21.30
2023-08-29T15:12:36.916Z,21.12
2023-08-29T15:14:39.335Z,21.43
2023-08-29T15:16:48.407Z,21.54
2023-08-29T15:18:55.172Z,20.96
2023-08-29T15:21:00.045Z,20.79
2023-08-29T15:23:06.883Z,21.05
2023-08-29T15:25:15.227Z,21.11
2023-08-29T15:27:20.279Z,20.73
2023-08-29T15:29:25.499Z,20.72
2023-08-29T15:31:30.659Z,20.16
2023-08-29T15:33:40.146Z,20.52
2023-08-29T15:35:49.697Z,20.36
2023-08-29T15:37:52.089Z,19.91
2023-08-29T15:39:57.506Z,20.20
2023-08-29T15:42:00.105Z,20.64
2023-08-29T15:44:04.991Z,20.46
2023-08-29T15:46:10.670Z,20.50
2023-08-29T15:48:13.056Z,20.10
2023-08-29T15:50:20.767Z,20.15
2023-08-29T15:52:25.872Z,19.81
2023-08-29T15:54:30.836Z,20.02
2023-08-29T15:56:35.759Z,20.15
2023-08-29T15:58:40.928Z,20.54
2023-08-29T16:00:46.112Z,20.54
2023-08-29T16:02:53.458Z,20.66
2023-08-29T16:05:02.545Z,20.58
2023-08-29T16:07:10.686Z,20.55
2023-08-29T16:09:16.238Z,20.48
2023-08-29T16:11:21.403Z,20.48
2023-08-29T16:13:33.943Z,20.56
2023-08-29T16:15:39.321Z,20.52
2023-08-29T16:17:44.504Z,20.23
2023-08-29T16:19:49.616Z,19.96
2023-08-29T16:21:56.971Z,19.92
2023-08-29T16:24:04.797Z,20.04
2023-08-29T16:26:23.408Z,19.79
2023-08-29T16:28:32.432Z,19.89
2023-08-29T16:30:35.432Z,19.86
2023-08-29T16:32:46.642Z,19.68
2023-08-29T16:34:52.148Z,19.57
2023-08-29T16:37:00.058Z,19.51
2023-08-29T16:39:10.927Z,19.82
2023-08-29T16:41:16.252Z,19.40
2023-08-29T16:43:26.922Z,19.51
2023-08-29T16:45:36.091Z,19.42
2023-08-29T16:47:41.292Z,19.30
2023-08-29T16:50:04.948Z,19.32
2023-08-29T16:52:10.360Z,19.34
2023-08-29T16:54:18.337Z,19.24
2023-08-29T16:56:23.500Z,18.98
2023-08-29T16:58:42.998Z,18.89
2023-08-29T17:00:58.564Z,18.85
2023-08-29T17:03:11.556Z,18.81
2023-08-29T17:05:21.647Z,18.72
2023-08-29T17:07:35.666Z,18.74
2023-08-29T17:09:48.976Z,18.69
2023-08-29T17:11:54.231Z,18.69
2023-08-29T17:14:04.490Z,18.81
2023-08-29T17:16:11.307Z,18.46
2023-08-29T17:18:17.084Z,18.40
2023-08-29T17:20:23.436Z,18.47
2023-08-29T17:22:29.378Z,18.40
2023-08-29T17:24:35.000Z,18.41
2023-08-29T17:26:43.156Z,18.27
2023-08-29T17:28:48.198Z,18.27
2023-08-29T17:31:02.076Z,18.30
2023-08-29T17:33:12.397Z,18.03
2023-08-29T17:35:41.275Z,17.99
2023-08-29T17:37:46.411Z,17.98
2023-08-29T17:39:52.203Z,18.05
2023-08-29T17:42:03.420Z,17.91
2023-08-29T17:44:08.909Z,17.67
2023-08-29T17:46:14.009Z,17.63
2023-08-29T17:48:18.901Z,17.71
2023-08-29T17:50:40.406Z,17.77
2023-08-29T17:52:52.725Z,17.65
2023-08-29T17:54:57.534Z,17.46
2023-08-29T17:57:05.166Z,17.26
2023-08-29T17:59:11.488Z,17.31
2023-08-29T18:01:13.889Z,17.16
2023-08-29T18:03:19.347Z,17.24
2023-08-29T18:05:25.474Z,17.13
2023-08-29T18:07:30.761Z,17.05
2023-08-29T18:09:35.847Z,16.93
2023-08-29T18:11:40.868Z,16.92
2023-08-29T18:13:48.578Z,16.84
2023-08-29T18:15:57.027Z,16.84
2023-08-29T18:18:03.419Z,16.85
2023-08-29T18:20:10.432Z,16.77
2023-08-29T18:22:13.121Z,16.67
2023-08-29T18:24:17.982Z,16.59
2023-08-29T18:26:23.161Z,16.50
2023-08-29T18:28:32.643Z,16.47
2023-08-29T18:30:40.637Z,16.33
2023-08-29T18:32:49.096Z,16.27
2023-08-29T18:34:54.242Z,16.17
2023-08-29T18:37:01.497Z,16.17
2023-08-29T18:39:09.451Z,16.04
2023-08-29T18:41:14.461Z,15.98
2023-08-29T18:43:19.591Z,15.89
2023-08-29T18:45:25.000Z,15.89
2023-08-29T18:47:32.779Z,15.85
2023-08-29T18:49:37.676Z,15.83
2023-08-29T18:51:42.737Z,15.78
2023-08-29T18:53:47.750Z,15.72
2023-08-29T18:55:53.153Z,15.75
2023-08-29T18:57:58.264Z,15.73
2023-08-29T19:00:03.459Z,15.75
2023-08-29T19:02:08.586Z,15.73
2023-08-29T19:04:19.095Z,15.72
2023-08-29T19:06:24.208Z,15.68
2023-08-29T19:08:32.157Z,15.72
2023-08-29T19:10:37.356Z,15.74
2023-08-29T19:12:42.376Z,15.73
2023-08-29T19:14:49.758Z,15.76
2023-08-29T19:16:57.652Z,15.75
2023-08-29T19:19:05.294Z,15.79
2023-08-29T19:21:13.461Z,15.77
2023-08-29T19:23:18.377Z,15.76
2023-08-29T19:25:25.135Z,15.72
2023-08-29T19:27:32.052Z,15.71
2023-08-29T19:29:37.288Z,15.67
2023-08-29T19:31:43.104Z,15.63
2023-08-29T19:33:48.186Z,15.66
2023-08-29T19:35:55.329Z,15.65
2023-08-29T19:38:03.096Z,15.63
2023-08-29T19:40:09.220Z,15.61
2023-08-29T19:42:14.122Z,15.55
2023-08-29T19:44:19.849Z,15.49
2023-08-29T19:46:25.280Z,15.46
2023-08-29T19:48:31.049Z,15.35
2023-08-29T19:50:36.322Z,15.34
2023-08-29T19:52:42.552Z,15.31
2023-08-29T19:54:50.324Z,15.26
2023-08-29T19:56:57.185Z,15.22
2023-08-29T19:59:04.545Z,15.16
2023-08-29T20:01:10.005Z,15.11
2023-08-29T20:03:15.072Z,15.06
2023-08-29T20:05:20.556Z,15.08
2023-08-29T20:07:26.972Z,15.05
2023-08-29T20:09:34.609Z,15.08
2023-08-29T20:11:44.855Z,15.11
2023-08-29T20:13:50.794Z,15.15
2023-08-29T20:15:58.872Z,15.17
2023-08-29T20:18:04.003Z,15.19
2023-08-29T20:20:11.617Z,15.23
2023-08-29T20:22:16.440Z,15.24
2023-08-29T20:24:25.155Z,15.24
2023-08-29T20:26:28.240Z,15.28
2023-08-29T20:28:35.941Z,15.30
2023-08-29T20:30:41.954Z,15.34
2023-08-29T20:32:50.482Z,15.36
2023-08-29T20:34:56.526Z,15.31
2023-08-29T20:37:02.228Z,15.36
2023-08-29T20:39:11.391Z,15.36
2023-08-29T20:41:17.822Z,15.34
2023-08-29T20:43:23.587Z,15.37
2023-08-29T20:45:35.991Z,15.37
2023-08-29T20:47:46.508Z,15.40
2023-08-29T20:49:53.008Z,15.38
2023-08-29T20:52:12.080Z,15.28
2023-08-29T20:54:17.683Z,15.28
2023-08-29T20:56:27.288Z,15.22
2023-08-29T20:59:15.815Z,15.15
2023-08-29T21:01:28.114Z,15.10
2023-08-29T21:03:36.970Z,15.09
2023-08-29T21:05:44.720Z,15.03
2023-08-29T21:07:51.803Z,14.98
2023-08-29T21:09:57.502Z,14.92
2023-08-29T21:12:03.495Z,14.83
2023-08-29T21:14:09.748Z,14.81
2023-08-29T21:16:20.358Z,14.79
2023-08-29T21:18:32.617Z,14.73
2023-08-29T21:20:38.586Z,14.67
2023-08-29T21:22:58.243Z,14.64
2023-08-29T21:25:07.422Z,14.59
2023-08-29T21:27:16.414Z,14.58
2023-08-29T21:29:18.693Z,14.56
2023-08-29T21:31:28.145Z,14.50
2023-08-29T21:33:36.407Z,14.45
2023-08-29T21:35:51.314Z,14.45
2023-08-29T21:37:56.530Z,14.38
2023-08-29T21:40:01.787Z,14.35
2023-08-29T21:42:07.654Z,14.33
2023-08-29T21:44:14.316Z,14.30
2023-08-29T21:46:20.303Z,14.28
2023-08-29T21:48:30.695Z,14.24
2023-08-29T21:50:46.495Z,14.20
2023-08-29T21:52:55.614Z,14.18
2023-08-29T21:55:03.858Z,14.17
2023-08-29T21:57:12.320Z,14.20
2023-08-29T21:59:18.291Z,14.17
2023-08-29T22:03:43.404Z,14.18
2023-08-29T22:05:58.087Z,14.17
2023-08-29T22:08:33.809Z,14.17
2023-08-29T22:13:15.421Z,14.15
2023-08-29T22:15:40.304Z,14.14
2023-08-29T22:18:35.068Z,14.14
2023-08-29T22:23:33.856Z,14.14
2023-08-29T22:26:06.072Z,14.18
2023-08-29T22:28:12.076Z,14.21
2023-08-29T22:30:37.912Z,14.21
2023-08-29T22:32:47.200Z,14.24
2023-08-29T22:35:19.426Z,14.20
2023-08-29T22:37:28.917Z,14.22
2023-08-29T22:42:38.992Z,14.30
2023-08-29T22:45:05.403Z,14.28
2023-08-29T22:48:17.408Z,14.40
2023-08-29T22:50:27.483Z,14.43
2023-08-29T22:52:33.991Z,14.44
2023-08-29T22:54:43.155Z,14.46
2023-08-29T22:57:01.503Z,14.52
2023-08-29T22:59:07.343Z,14.57
2023-08-29T23:01:13.856Z,14.63
2023-08-29T23:03:19.381Z,14.64
2023-08-29T23:05:28.607Z,14.64
2023-08-29T23:07:37.333Z,14.67
2023-08-29T23:09:45.993Z,14.71
2023-08-29T23:11:55.347Z,14.72
2023-08-29T23:14:02.337Z,14.76
2023-08-29T23:16:09.294Z,14.75
2023-08-29T23:18:21.764Z,14.75
2023-08-29T23:20:58.903Z,14.76
2023-08-29T23:23:15.989Z,14.74
2023-08-29T23:27:08.638Z,14.77
2023-08-29T23:29:50.336Z,14.77
2023-08-29T23:31:33.748Z,14.73
2023-08-29T23:33:52.177Z,14.68
2023-08-29T23:36:04.458Z,14.66
2023-08-29T23:38:10.556Z,14.64
2023-08-29T23:40:51.145Z,14.65
2023-08-29T23:43:01.749Z,14.62
2023-08-29T23:45:10.056Z,14.65
2023-08-29T23:47:15.926Z,14.64
2023-08-29T23:49:22.784Z,14.60
2023-08-29T23:51:32.954Z,14.55
2023-08-29T23:53:45.252Z,14.55
2023-08-29T23:55:59.871Z,14.58
2023-08-29T23:58:05.525Z,14.52
